Archival Weather

Chicago O'Hare International

Chicago, Illinois (KORD)

Report from: Tuesday, February 27, 2024 1:51 AM CST
Current time: Tuesday, April 23, 2024 2:00 AM CDT

Current weather – Weather history – Daily summaries
Weather forecast

Temperature15.0°C (59.0°F)
Dew point11.7°C (53.1°F)
Winds 13 kts (6.7 m/s, 15 mph) South-Southwest (210°)
Wind gusts 21 kts (10.8 m/s, 24.2 mph)
Peak wind 28 kts (14.4 m/s, 32.2 mph) South-Southwest (200°) at 07:35
Visibility10 mi. (16.1 km)
Clouds Ceiling: Broken clouds 2,000 ft. (610 m)
Broken clouds 25,000 ft. (7,620 m)
Altimeter29.43 in.Hg (997 mB)
Relative humidity81 %
Density altitude767 ft. (234 m)
Sea-level pressure99.6 kPa (996 mB, 29.42 in.Hg)
Remarks Automated weather observing station with precipitation discriminator
Flight conditions Marginal Visual Meteorological Conditions
Raw dataKORD 270751Z 21013G21KT 10SM BKN020 BKN250 15/12 A2943 RMK AO2 PK WND 20028/0735 SLP964 T01500117
An error has occurred. This application may no longer respond until reloaded. Reload 🗙